createdAt,value
2023-03-22T00:03:59.388Z,33.36
2023-03-22T00:07:59.673Z,33.41
2023-03-22T00:11:59.906Z,33.43
2023-03-22T00:16:00.220Z,33.41
2023-03-22T00:20:00.629Z,33.43
2023-03-22T00:24:00.728Z,33.39
2023-03-22T00:28:01.034Z,33.37
2023-03-22T00:32:01.343Z,33.41
2023-03-22T00:36:01.650Z,33.45
2023-03-22T00:40:01.966Z,33.45
2023-03-22T00:44:02.233Z,33.42
2023-03-22T00:48:02.571Z,33.38
2023-03-22T00:52:02.839Z,33.45
2023-03-22T00:56:03.144Z,33.45
2023-03-22T01:00:03.471Z,33.40
2023-03-22T01:04:03.763Z,33.42
2023-03-22T01:08:04.046Z,33.42
2023-03-22T01:12:04.362Z,33.45
2023-03-22T01:16:04.791Z,33.48
2023-03-22T01:20:05.027Z,33.49
2023-03-22T01:24:05.269Z,33.47
2023-03-22T01:28:05.596Z,33.53
2023-03-22T01:32:05.880Z,33.54
2023-03-22T01:36:07.137Z,33.54
2023-03-22T01:40:06.507Z,33.54
2023-03-22T01:44:06.798Z,33.55
2023-03-22T01:48:07.161Z,33.56
2023-03-22T01:52:07.438Z,33.56
2023-03-22T01:56:08.163Z,33.62
2023-03-22T02:00:08.061Z,33.58
2023-03-22T02:04:08.363Z,33.60
2023-03-22T02:08:08.656Z,33.65
2023-03-22T02:12:08.949Z,33.64
2023-03-22T02:16:09.274Z,33.67
2023-03-22T02:20:09.669Z,33.69
2023-03-22T02:24:09.816Z,33.70
2023-03-22T02:28:10.089Z,33.67
2023-03-22T02:32:10.343Z,33.65
2023-03-22T02:36:10.597Z,33.65
2023-03-22T02:40:10.836Z,33.55
2023-03-22T02:44:11.171Z,33.62
2023-03-22T02:48:11.268Z,33.59
2023-03-22T02:52:11.502Z,33.56
2023-03-22T02:56:11.644Z,33.58
2023-03-22T03:00:11.845Z,33.56
2023-03-22T03:04:11.957Z,33.61
2023-03-22T03:08:12.141Z,33.58
2023-03-22T03:12:12.285Z,33.61
2023-03-22T03:16:12.502Z,33.54
2023-03-22T03:20:12.589Z,33.54
2023-03-22T03:24:12.732Z,33.57
2023-03-22T03:28:12.882Z,33.56
2023-03-22T03:32:13.085Z,33.57
2023-03-22T03:36:13.156Z,33.61
2023-03-22T03:40:13.308Z,33.61
2023-03-22T03:44:13.440Z,33.61
2023-03-22T03:48:13.686Z,33.61
2023-03-22T03:52:13.732Z,33.56
2023-03-22T03:56:13.894Z,33.51
2023-03-22T04:00:14.126Z,33.52
2023-03-22T04:04:14.236Z,33.45
2023-03-22T04:08:14.706Z,33.43
2023-03-22T04:12:14.614Z,33.45
2023-03-22T04:16:14.718Z,33.44
2023-03-22T04:20:14.840Z,33.41
2023-03-22T04:24:15.008Z,33.44
2023-03-22T04:28:15.197Z,33.36
2023-03-22T04:32:15.426Z,33.41
2023-03-22T04:36:15.531Z,33.40
2023-03-22T04:40:15.676Z,33.40
2023-03-22T04:44:15.831Z,33.41
2023-03-22T04:48:15.996Z,33.38
2023-03-22T04:52:16.118Z,33.41
2023-03-22T04:56:16.280Z,33.40
2023-03-22T05:00:16.401Z,33.37
2023-03-22T05:04:16.574Z,33.38
2023-03-22T05:08:16.734Z,33.38
2023-03-22T05:12:16.854Z,33.37
2023-03-22T05:16:17.051Z,33.34
2023-03-22T05:20:17.220Z,33.31
2023-03-22T05:24:17.330Z,33.38
2023-03-22T05:28:17.583Z,33.38
2023-03-22T05:32:17.658Z,33.34
2023-03-22T05:36:17.795Z,33.34
2023-03-22T05:40:17.961Z,33.36
2023-03-22T05:44:18.150Z,33.36
2023-03-22T05:48:18.324Z,33.36
2023-03-22T05:52:18.492Z,33.32
2023-03-22T05:56:18.675Z,33.37
2023-03-22T06:00:18.841Z,33.32
2023-03-22T06:04:19.097Z,33.34
2023-03-22T06:08:19.193Z,33.36
2023-03-22T06:12:19.416Z,33.35
2023-03-22T06:16:19.522Z,33.36
2023-03-22T06:20:19.669Z,33.33
2023-03-22T06:24:19.831Z,33.38
2023-03-22T06:28:19.999Z,33.44
2023-03-22T06:32:20.269Z,33.48
2023-03-22T06:36:20.298Z,33.45
2023-03-22T06:40:20.456Z,33.43
2023-03-22T06:44:20.618Z,33.39
2023-03-22T06:48:20.834Z,33.39
2023-03-22T06:52:20.918Z,33.39
2023-03-22T06:56:21.129Z,33.39
2023-03-22T07:00:21.220Z,33.39
2023-03-22T07:04:21.476Z,33.35
2023-03-22T07:08:21.537Z,33.37
2023-03-22T07:12:21.688Z,33.38
2023-03-22T07:16:24.876Z,33.29
2023-03-22T07:20:21.947Z,33.33
2023-03-22T07:24:22.065Z,33.28
2023-03-22T07:28:22.173Z,33.28
2023-03-22T07:32:22.437Z,33.25
2023-03-22T07:36:22.559Z,33.28
2023-03-22T07:40:22.481Z,33.30
2023-03-22T07:44:22.570Z,33.28
2023-03-22T07:48:23.110Z,33.36
2023-03-22T07:52:22.794Z,33.36
2023-03-22T07:56:22.910Z,33.39
2023-03-22T08:00:23.005Z,33.40
2023-03-22T08:04:23.134Z,33.38
2023-03-22T08:08:23.395Z,33.39
2023-03-22T08:12:23.348Z,33.38
2023-03-22T08:16:23.703Z,33.40
2023-03-22T08:20:23.555Z,33.39
2023-03-22T08:24:23.691Z,33.38
2023-03-22T08:28:23.842Z,33.40
2023-03-22T08:32:23.900Z,33.44
2023-03-22T08:36:24.021Z,33.43
2023-03-22T08:40:24.172Z,33.41
2023-03-22T08:44:24.225Z,33.44
2023-03-22T08:48:24.387Z,33.46
2023-03-22T08:52:24.831Z,33.46
2023-03-22T08:56:24.539Z,33.45
2023-03-22T09:00:24.660Z,33.46
2023-03-22T09:04:24.786Z,33.45
2023-03-22T09:08:24.850Z,33.43
2023-03-22T09:12:24.916Z,33.49
2023-03-22T09:16:25.075Z,33.46
2023-03-22T09:20:25.107Z,33.45
2023-03-22T09:24:25.333Z,33.40
2023-03-22T09:28:25.477Z,33.45
2023-03-22T09:32:25.428Z,33.41
2023-03-22T09:36:25.522Z,33.41
2023-03-22T09:40:25.780Z,33.41
2023-03-22T09:44:25.793Z,33.43
2023-03-22T09:48:26.053Z,33.37
2023-03-22T09:52:26.309Z,33.35
2023-03-22T09:56:27.335Z,33.35
2023-03-22T10:00:26.757Z,33.33
2023-03-22T10:04:26.917Z,33.25
2023-03-22T10:08:27.034Z,33.27
2023-03-22T10:12:27.250Z,33.21
2023-03-22T10:16:27.511Z,33.13
2023-03-22T10:20:27.743Z,33.09
2023-03-22T10:24:28.149Z,33.01
2023-03-22T10:28:28.370Z,32.97
2023-03-22T10:32:28.461Z,32.96
2023-03-22T10:36:28.522Z,32.92
2023-03-22T10:40:28.572Z,32.91
2023-03-22T10:44:28.653Z,32.89
2023-03-22T10:48:28.828Z,32.82
2023-03-22T10:52:28.808Z,32.75
2023-03-22T10:56:28.890Z,32.71
2023-03-22T11:00:29.060Z,32.65
2023-03-22T11:04:29.017Z,32.59
2023-03-22T11:08:29.078Z,32.60
2023-03-22T11:12:29.116Z,32.53
2023-03-22T11:16:29.188Z,32.48
2023-03-22T11:20:31.006Z,32.48
2023-03-22T11:24:29.229Z,32.36
2023-03-22T11:28:29.266Z,32.32
2023-03-22T11:32:29.386Z,32.17
2023-03-22T11:36:29.375Z,32.01
2023-03-22T11:40:29.434Z,31.90
2023-03-22T11:44:29.437Z,31.69
2023-03-22T11:48:29.498Z,31.49
2023-03-22T11:52:29.426Z,31.36
2023-03-22T11:56:29.480Z,31.27
2023-03-22T12:00:29.448Z,31.23
2023-03-22T12:04:29.451Z,31.15
2023-03-22T12:08:29.457Z,31.06
2023-03-22T12:12:29.901Z,31.06
2023-03-22T12:16:29.430Z,31.06
2023-03-22T12:20:29.448Z,31.01
2023-03-22T12:24:29.330Z,30.89
2023-03-22T12:28:29.285Z,30.85
2023-03-22T12:32:29.278Z,30.81
2023-03-22T12:36:29.235Z,30.72
2023-03-22T12:40:29.205Z,30.65
2023-03-22T12:44:29.053Z,30.61
2023-03-22T12:48:29.134Z,30.54
2023-03-22T12:52:34.800Z,30.53
2023-03-22T12:56:30.119Z,30.46
2023-03-22T13:00:29.049Z,30.32
2023-03-22T13:04:29.175Z,30.28
2023-03-22T13:08:30.763Z,30.18
2023-03-22T13:12:29.180Z,30.08
2023-03-22T13:16:29.116Z,30.02
2023-03-22T13:20:28.972Z,29.93
2023-03-22T13:24:29.803Z,29.82
2023-03-22T13:28:28.759Z,29.80
2023-03-22T13:32:28.678Z,29.73
2023-03-22T13:36:28.617Z,29.67
2023-03-22T13:40:28.445Z,29.64
2023-03-22T13:44:28.332Z,29.62
2023-03-22T13:48:28.314Z,29.65
2023-03-22T13:52:28.206Z,29.62
2023-03-22T13:56:28.245Z,29.64
2023-03-22T14:00:28.139Z,29.64
2023-03-22T14:04:28.025Z,29.63
2023-03-22T14:08:27.909Z,29.71
2023-03-22T14:12:27.832Z,29.90
2023-03-22T14:16:27.728Z,29.85
2023-03-22T14:20:27.586Z,29.90
2023-03-22T14:49:28.077Z,30.42
2023-03-22T14:53:28.136Z,30.44
2023-03-22T14:57:31.719Z,30.37
2023-03-22T15:01:29.281Z,30.49
2023-03-22T15:05:28.279Z,30.58
2023-03-22T15:09:28.606Z,30.65
2023-03-22T15:13:28.667Z,30.67
2023-03-22T15:17:28.741Z,30.81
2023-03-22T15:21:28.828Z,30.88
2023-03-22T15:25:28.935Z,30.98
2023-03-22T15:29:29.226Z,30.98
2023-03-22T15:33:28.982Z,31.03
2023-03-22T15:37:29.038Z,31.05
2023-03-22T15:41:29.101Z,31.17
2023-03-22T15:45:29.178Z,31.27
2023-03-22T15:49:29.253Z,31.33
2023-03-22T15:53:29.319Z,31.45
2023-03-22T15:57:29.397Z,31.56
2023-03-22T16:01:29.500Z,31.66
2023-03-22T16:05:29.559Z,31.73
2023-03-22T16:09:29.669Z,31.78
2023-03-22T16:13:29.755Z,31.83
2023-03-22T16:17:29.850Z,31.86
2023-03-22T16:21:30.085Z,31.90
2023-03-22T16:25:30.182Z,31.97
2023-03-22T16:29:30.350Z,32.04
2023-03-22T16:33:30.377Z,32.08
2023-03-22T16:37:30.512Z,32.15
2023-03-22T16:41:30.651Z,32.20
2023-03-22T16:45:30.732Z,32.30
2023-03-22T16:49:30.871Z,32.30
2023-03-22T16:53:37.818Z,32.34
2023-03-22T16:57:32.074Z,32.37
2023-03-22T17:01:31.323Z,32.42
2023-03-22T17:05:31.322Z,32.44
2023-03-22T17:09:31.439Z,32.43
2023-03-22T17:13:31.586Z,32.59
2023-03-22T17:17:31.792Z,32.56
2023-03-22T17:21:31.928Z,32.64
2023-03-22T17:25:32.013Z,32.63
2023-03-22T17:29:32.141Z,32.72
2023-03-22T17:33:32.283Z,32.76
2023-03-22T17:37:32.437Z,32.77
2023-03-22T17:41:32.687Z,32.84
2023-03-22T17:45:52.677Z,32.84
2023-03-22T17:49:34.103Z,32.89
2023-03-22T17:54:19.569Z,32.91
2023-03-22T18:01:34.630Z,32.95
2023-03-22T18:05:34.153Z,32.95
2023-03-22T18:09:33.869Z,32.95
2023-03-22T18:13:34.041Z,32.97
2023-03-22T18:17:34.202Z,32.97
2023-03-22T18:21:34.365Z,33.03
2023-03-22T18:25:41.516Z,32.96
2023-03-22T18:29:35.661Z,32.96
2023-03-22T18:33:34.817Z,32.89
2023-03-22T18:37:35.008Z,32.86
2023-03-22T18:41:45.018Z,32.89
2023-03-22T18:45:55.518Z,32.89
2023-03-22T18:49:36.719Z,32.89
2023-03-22T18:53:35.953Z,32.87
2023-03-22T18:57:36.059Z,32.90
2023-03-22T19:01:36.231Z,32.87
2023-03-22T19:05:36.382Z,32.84
2023-03-22T19:09:36.547Z,32.84
2023-03-22T19:13:46.227Z,32.84
2023-03-22T19:17:38.131Z,32.91
2023-03-22T19:21:37.284Z,32.84
2023-03-22T19:25:37.768Z,32.83
2023-03-22T19:29:37.879Z,32.80
2023-03-22T19:37:38.255Z,32.80
2023-03-22T19:45:38.899Z,32.74
2023-03-22T19:49:38.850Z,32.70
2023-03-22T19:54:14.070Z,32.73
2023-03-22T19:57:40.258Z,32.72
2023-03-22T20:01:39.421Z,32.63
2023-03-22T20:05:47.746Z,32.66
2023-03-22T20:09:40.846Z,32.68
2023-03-22T20:13:40.047Z,32.66
2023-03-22T20:17:40.377Z,32.67
2023-03-22T20:21:40.792Z,32.72
2023-03-22T20:25:41.319Z,32.71
2023-03-22T20:29:41.420Z,32.65
2023-03-22T20:33:41.714Z,32.66
2023-03-22T20:37:42.363Z,32.63
2023-03-22T20:41:42.306Z,32.60
2023-03-22T20:45:42.850Z,32.62
2023-03-22T20:49:42.966Z,32.53
2023-03-22T20:53:43.198Z,32.57
2023-03-22T20:57:43.436Z,32.60
2023-03-22T21:01:43.733Z,32.60
2023-03-22T21:05:43.897Z,32.60
2023-03-22T21:09:44.379Z,32.59
2023-03-22T21:13:44.302Z,32.59
2023-03-22T21:17:44.524Z,32.61
2023-03-22T21:21:45.538Z,32.50
2023-03-22T21:25:45.023Z,32.54
2023-03-22T21:29:45.212Z,32.55
2023-03-22T21:33:45.906Z,32.51
2023-03-22T21:37:45.685Z,32.55
2023-03-22T21:41:45.934Z,32.57
2023-03-22T21:45:46.193Z,32.51
2023-03-22T21:49:46.437Z,32.53
2023-03-22T21:53:46.692Z,32.51
2023-03-22T21:57:46.947Z,32.49
2023-03-22T22:01:47.215Z,32.48
2023-03-22T22:05:47.476Z,32.52
2023-03-22T22:09:47.746Z,32.48
2023-03-22T22:13:48.001Z,32.51
2023-03-22T22:17:48.267Z,32.48
2023-03-22T22:21:48.544Z,32.50
2023-03-22T22:25:48.810Z,32.48
2023-03-22T22:29:49.076Z,32.51
2023-03-22T22:33:49.345Z,32.44
2023-03-22T22:37:49.624Z,32.49
2023-03-22T22:41:49.890Z,32.44
2023-03-22T22:45:50.177Z,32.46
2023-03-22T22:49:50.462Z,32.51
2023-03-22T22:53:50.759Z,32.47
2023-03-22T22:57:51.063Z,32.44
2023-03-22T23:01:51.333Z,32.44
2023-03-22T23:05:52.064Z,32.49
2023-03-22T23:09:51.949Z,32.45
2023-03-22T23:13:52.273Z,32.45
2023-03-22T23:17:55.460Z,32.43
2023-03-22T23:21:53.830Z,32.48
2023-03-22T23:25:53.428Z,32.45
2023-03-22T23:29:53.285Z,32.44
2023-03-22T23:33:53.500Z,32.46
2023-03-22T23:37:53.736Z,32.43
2023-03-22T23:41:54.019Z,32.42
2023-03-22T23:45:54.373Z,32.50
2023-03-22T23:49:54.721Z,32.46
2023-03-22T23:53:55.074Z,32.47
2023-03-22T23:57:55.424Z,32.51
